sensor_id;sensor_type;location;lat;lon;timestamp;P1;durP1;ratioP1;P2;durP2;ratioP2
21458;SDS011;10891;49.350;19.386;2022-10-29T00:01:23;16.80;;;9.40;;
21458;SDS011;10891;49.350;19.386;2022-10-29T00:03:49;12.45;;;7.15;;
21458;SDS011;10891;49.350;19.386;2022-10-29T00:06:16;12.65;;;7.90;;
21458;SDS011;10891;49.350;19.386;2022-10-29T00:08:43;14.02;;;8.35;;
21458;SDS011;10891;49.350;19.386;2022-10-29T00:11:12;14.27;;;6.57;;
21458;SDS011;10891;49.350;19.386;2022-10-29T00:13:40;22.55;;;11.63;;
21458;SDS011;10891;49.350;19.386;2022-10-29T00:16:08;22.70;;;12.40;;
21458;SDS011;10891;49.350;19.386;2022-10-29T00:18:37;33.17;;;16.35;;
21458;SDS011;10891;49.350;19.386;2022-10-29T00:21:04;33.38;;;15.90;;
21458;SDS011;10891;49.350;19.386;2022-10-29T00:23:32;43.20;;;16.92;;
21458;SDS011;10891;49.350;19.386;2022-10-29T00:26:00;43.88;;;18.08;;
21458;SDS011;10891;49.350;19.386;2022-10-29T00:28:29;34.03;;;15.52;;
21458;SDS011;10891;49.350;19.386;2022-10-29T00:30:56;29.83;;;14.43;;
21458;SDS011;10891;49.350;19.386;2022-10-29T00:33:26;27.50;;;12.15;;
21458;SDS011;10891;49.350;19.386;2022-10-29T00:35:54;24.90;;;11.88;;
21458;SDS011;10891;49.350;19.386;2022-10-29T00:38:21;19.50;;;10.70;;
21458;SDS011;10891;49.350;19.386;2022-10-29T00:40:48;22.55;;;10.57;;
21458;SDS011;10891;49.350;19.386;2022-10-29T00:43:16;25.70;;;11.07;;
21458;SDS011;10891;49.350;19.386;2022-10-29T00:45:46;20.60;;;10.18;;
21458;SDS011;10891;49.350;19.386;2022-10-29T00:48:16;18.45;;;10.68;;
21458;SDS011;10891;49.350;19.386;2022-10-29T00:50:44;17.98;;;9.52;;
21458;SDS011;10891;49.350;19.386;2022-10-29T00:53:13;15.88;;;9.15;;
21458;SDS011;10891;49.350;19.386;2022-10-29T00:55:41;22.52;;;13.45;;
21458;SDS011;10891;49.350;19.386;2022-10-29T00:58:07;18.70;;;10.60;;
21458;SDS011;10891;49.350;19.386;2022-10-29T01:00:35;13.73;;;7.50;;
21458;SDS011;10891;49.350;19.386;2022-10-29T01:03:04;12.57;;;7.28;;
21458;SDS011;10891;49.350;19.386;2022-10-29T01:05:32;23.08;;;10.77;;
21458;SDS011;10891;49.350;19.386;2022-10-29T01:08:00;32.10;;;13.77;;
21458;SDS011;10891;49.350;19.386;2022-10-29T01:10:30;32.42;;;14.10;;
21458;SDS011;10891;49.350;19.386;2022-10-29T01:13:08;25.70;;;12.52;;
21458;SDS011;10891;49.350;19.386;2022-10-29T01:15:52;24.90;;;11.55;;
21458;SDS011;10891;49.350;19.386;2022-10-29T01:18:26;20.77;;;10.45;;
21458;SDS011;10891;49.350;19.386;2022-10-29T01:24:25;27.33;;;12.70;;
21458;SDS011;10891;49.350;19.386;2022-10-29T01:27:27;28.45;;;12.82;;
21458;SDS011;10891;49.350;19.386;2022-10-29T01:30:22;36.72;;;14.50;;
21458;SDS011;10891;49.350;19.386;2022-10-29T01:33:06;26.02;;;12.45;;
21458;SDS011;10891;49.350;19.386;2022-10-29T01:35:46;25.88;;;11.68;;
21458;SDS011;10891;49.350;19.386;2022-10-29T01:38:21;20.55;;;10.60;;
21458;SDS011;10891;49.350;19.386;2022-10-29T01:40:58;21.55;;;10.40;;
21458;SDS011;10891;49.350;19.386;2022-10-29T01:43:32;16.23;;;9.27;;
21458;SDS011;10891;49.350;19.386;2022-10-29T01:46:04;22.02;;;9.70;;
21458;SDS011;10891;49.350;19.386;2022-10-29T01:48:36;16.75;;;8.55;;
21458;SDS011;10891;49.350;19.386;2022-10-29T01:51:09;13.10;;;7.38;;
21458;SDS011;10891;49.350;19.386;2022-10-29T01:53:43;14.07;;;7.15;;
21458;SDS011;10891;49.350;19.386;2022-10-29T01:56:10;15.55;;;7.25;;
21458;SDS011;10891;49.350;19.386;2022-10-29T01:58:39;14.60;;;7.55;;
21458;SDS011;10891;49.350;19.386;2022-10-29T02:01:14;14.02;;;7.72;;
21458;SDS011;10891;49.350;19.386;2022-10-29T02:03:51;14.20;;;7.72;;
21458;SDS011;10891;49.350;19.386;2022-10-29T02:06:27;15.50;;;8.23;;
21458;SDS011;10891;49.350;19.386;2022-10-29T02:09:03;18.70;;;15.52;;
21458;SDS011;10891;49.350;19.386;2022-10-29T02:11:36;12.38;;;6.93;;
21458;SDS011;10891;49.350;19.386;2022-10-29T02:14:11;11.18;;;6.50;;
21458;SDS011;10891;49.350;19.386;2022-10-29T02:16:44;12.32;;;6.50;;
21458;SDS011;10891;49.350;19.386;2022-10-29T02:19:12;14.00;;;7.95;;
21458;SDS011;10891;49.350;19.386;2022-10-29T02:21:39;10.90;;;7.60;;
21458;SDS011;10891;49.350;19.386;2022-10-29T02:24:08;16.48;;;11.25;;
21458;SDS011;10891;49.350;19.386;2022-10-29T02:26:35;17.63;;;9.27;;
21458;SDS011;10891;49.350;19.386;2022-10-29T02:29:02;10.27;;;6.70;;
21458;SDS011;10891;49.350;19.386;2022-10-29T02:31:29;9.98;;;6.00;;
21458;SDS011;10891;49.350;19.386;2022-10-29T02:33:55;12.98;;;8.98;;
21458;SDS011;10891;49.350;19.386;2022-10-29T02:36:24;19.05;;;13.50;;
21458;SDS011;10891;49.350;19.386;2022-10-29T02:38:50;16.00;;;13.05;;
21458;SDS011;10891;49.350;19.386;2022-10-29T02:41:17;13.57;;;9.65;;
21458;SDS011;10891;49.350;19.386;2022-10-29T02:43:44;6.57;;;4.30;;
21458;SDS011;10891;49.350;19.386;2022-10-29T02:46:12;6.47;;;3.78;;
21458;SDS011;10891;49.350;19.386;2022-10-29T02:48:40;9.82;;;4.63;;
21458;SDS011;10891;49.350;19.386;2022-10-29T02:51:07;8.50;;;4.28;;
21458;SDS011;10891;49.350;19.386;2022-10-29T02:53:36;7.57;;;4.82;;
21458;SDS011;10891;49.350;19.386;2022-10-29T02:56:03;11.07;;;6.47;;
21458;SDS011;10891;49.350;19.386;2022-10-29T02:58:30;11.57;;;6.35;;
21458;SDS011;10891;49.350;19.386;2022-10-29T03:00:58;9.35;;;6.20;;
21458;SDS011;10891;49.350;19.386;2022-10-29T03:03:25;8.48;;;5.47;;
21458;SDS011;10891;49.350;19.386;2022-10-29T03:05:52;7.05;;;4.55;;
21458;SDS011;10891;49.350;19.386;2022-10-29T03:08:19;7.65;;;4.97;;
21458;SDS011;10891;49.350;19.386;2022-10-29T03:10:47;8.57;;;5.28;;
21458;SDS011;10891;49.350;19.386;2022-10-29T03:13:14;7.32;;;4.43;;
21458;SDS011;10891;49.350;19.386;2022-10-29T03:15:42;7.97;;;4.18;;
21458;SDS011;10891;49.350;19.386;2022-10-29T03:18:09;6.50;;;4.35;;
21458;SDS011;10891;49.350;19.386;2022-10-29T03:20:36;7.93;;;4.57;;
21458;SDS011;10891;49.350;19.386;2022-10-29T03:23:04;6.38;;;4.05;;
21458;SDS011;10891;49.350;19.386;2022-10-29T03:25:30;5.88;;;3.95;;
21458;SDS011;10891;49.350;19.386;2022-10-29T03:27:59;11.40;;;4.40;;
21458;SDS011;10891;49.350;19.386;2022-10-29T03:30:25;6.05;;;3.50;;
21458;SDS011;10891;49.350;19.386;2022-10-29T03:32:52;7.60;;;3.25;;
21458;SDS011;10891;49.350;19.386;2022-10-29T03:35:19;5.35;;;3.45;;
21458;SDS011;10891;49.350;19.386;2022-10-29T03:37:47;8.75;;;4.50;;
21458;SDS011;10891;49.350;19.386;2022-10-29T03:40:14;8.88;;;4.30;;
21458;SDS011;10891;49.350;19.386;2022-10-29T03:42:42;7.07;;;4.82;;
21458;SDS011;10891;49.350;19.386;2022-10-29T03:45:10;10.30;;;5.97;;
21458;SDS011;10891;49.350;19.386;2022-10-29T03:47:37;7.78;;;4.40;;
21458;SDS011;10891;49.350;19.386;2022-10-29T03:50:04;8.80;;;4.57;;
21458;SDS011;10891;49.350;19.386;2022-10-29T03:52:32;10.15;;;5.00;;
21458;SDS011;10891;49.350;19.386;2022-10-29T03:54:59;7.95;;;4.72;;
21458;SDS011;10891;49.350;19.386;2022-10-29T03:57:25;8.93;;;6.15;;
21458;SDS011;10891;49.350;19.386;2022-10-29T03:59:52;6.85;;;3.83;;
21458;SDS011;10891;49.350;19.386;2022-10-29T04:02:21;12.13;;;4.95;;
21458;SDS011;10891;49.350;19.386;2022-10-29T04:04:48;10.35;;;3.85;;
21458;SDS011;10891;49.350;19.386;2022-10-29T04:07:15;12.23;;;7.50;;
21458;SDS011;10891;49.350;19.386;2022-10-29T04:09:42;12.15;;;8.55;;
21458;SDS011;10891;49.350;19.386;2022-10-29T04:12:08;13.40;;;5.10;;
21458;SDS011;10891;49.350;19.386;2022-10-29T04:14:35;11.38;;;6.50;;
21458;SDS011;10891;49.350;19.386;2022-10-29T04:17:02;8.63;;;5.20;;
21458;SDS011;10891;49.350;19.386;2022-10-29T04:19:30;13.43;;;10.57;;
21458;SDS011;10891;49.350;19.386;2022-10-29T04:21:57;15.40;;;12.02;;
21458;SDS011;10891;49.350;19.386;2022-10-29T04:24:24;15.85;;;9.63;;
21458;SDS011;10891;49.350;19.386;2022-10-29T04:26:51;8.80;;;5.88;;
21458;SDS011;10891;49.350;19.386;2022-10-29T04:29:17;14.27;;;6.22;;
21458;SDS011;10891;49.350;19.386;2022-10-29T04:31:44;10.50;;;6.47;;
21458;SDS011;10891;49.350;19.386;2022-10-29T04:34:11;8.80;;;5.82;;
21458;SDS011;10891;49.350;19.386;2022-10-29T04:36:39;14.85;;;8.13;;
21458;SDS011;10891;49.350;19.386;2022-10-29T04:39:07;10.80;;;5.22;;
21458;SDS011;10891;49.350;19.386;2022-10-29T04:41:34;10.10;;;6.70;;
21458;SDS011;10891;49.350;19.386;2022-10-29T04:44:01;13.10;;;10.68;;
21458;SDS011;10891;49.350;19.386;2022-10-29T04:46:28;8.43;;;5.10;;
21458;SDS011;10891;49.350;19.386;2022-10-29T04:48:55;10.88;;;6.00;;
21458;SDS011;10891;49.350;19.386;2022-10-29T04:51:22;12.05;;;6.35;;
21458;SDS011;10891;49.350;19.386;2022-10-29T04:53:52;11.25;;;7.70;;
21458;SDS011;10891;49.350;19.386;2022-10-29T04:56:19;15.68;;;8.57;;
21458;SDS011;10891;49.350;19.386;2022-10-29T04:58:48;14.60;;;7.68;;
21458;SDS011;10891;49.350;19.386;2022-10-29T05:01:16;13.43;;;7.45;;
21458;SDS011;10891;49.350;19.386;2022-10-29T05:03:43;15.02;;;7.22;;
21458;SDS011;10891;49.350;19.386;2022-10-29T05:06:10;12.10;;;6.28;;
21458;SDS011;10891;49.350;19.386;2022-10-29T05:08:37;8.30;;;6.05;;
21458;SDS011;10891;49.350;19.386;2022-10-29T05:11:06;8.07;;;4.68;;
21458;SDS011;10891;49.350;19.386;2022-10-29T05:13:33;8.57;;;4.45;;
21458;SDS011;10891;49.350;19.386;2022-10-29T05:16:00;9.13;;;4.75;;
21458;SDS011;10891;49.350;19.386;2022-10-29T05:18:27;10.65;;;4.85;;
21458;SDS011;10891;49.350;19.386;2022-10-29T05:20:54;14.00;;;5.32;;
21458;SDS011;10891;49.350;19.386;2022-10-29T05:23:22;9.98;;;5.45;;
21458;SDS011;10891;49.350;19.386;2022-10-29T05:25:49;10.32;;;6.15;;
21458;SDS011;10891;49.350;19.386;2022-10-29T05:28:18;10.43;;;5.85;;
21458;SDS011;10891;49.350;19.386;2022-10-29T05:30:46;10.15;;;5.68;;
21458;SDS011;10891;49.350;19.386;2022-10-29T05:33:15;7.63;;;5.15;;
21458;SDS011;10891;49.350;19.386;2022-10-29T05:35:43;7.88;;;4.40;;
21458;SDS011;10891;49.350;19.386;2022-10-29T05:38:11;6.95;;;4.00;;
21458;SDS011;10891;49.350;19.386;2022-10-29T05:40:39;7.68;;;4.53;;
21458;SDS011;10891;49.350;19.386;2022-10-29T05:43:09;8.40;;;4.55;;
21458;SDS011;10891;49.350;19.386;2022-10-29T05:45:37;9.98;;;4.88;;
21458;SDS011;10891;49.350;19.386;2022-10-29T05:48:04;10.98;;;4.30;;
21458;SDS011;10891;49.350;19.386;2022-10-29T05:50:31;8.05;;;3.72;;
21458;SDS011;10891;49.350;19.386;2022-10-29T05:52:59;6.47;;;3.33;;
21458;SDS011;10891;49.350;19.386;2022-10-29T05:55:27;20.52;;;8.13;;
21458;SDS011;10891;49.350;19.386;2022-10-29T05:57:55;7.38;;;3.78;;
21458;SDS011;10891;49.350;19.386;2022-10-29T06:00:22;5.85;;;3.63;;
21458;SDS011;10891;49.350;19.386;2022-10-29T06:02:51;39.53;;;15.18;;
21458;SDS011;10891;49.350;19.386;2022-10-29T06:05:18;51.97;;;19.75;;
21458;SDS011;10891;49.350;19.386;2022-10-29T06:07:45;103.15;;;36.45;;
21458;SDS011;10891;49.350;19.386;2022-10-29T06:10:12;30.15;;;13.60;;
21458;SDS011;10891;49.350;19.386;2022-10-29T06:12:39;15.70;;;6.35;;
21458;SDS011;10891;49.350;19.386;2022-10-29T06:15:06;11.82;;;6.05;;
21458;SDS011;10891;49.350;19.386;2022-10-29T06:17:33;12.27;;;6.07;;
21458;SDS011;10891;49.350;19.386;2022-10-29T06:20:07;18.23;;;7.35;;
21458;SDS011;10891;49.350;19.386;2022-10-29T06:22:35;10.88;;;5.63;;
21458;SDS011;10891;49.350;19.386;2022-10-29T06:25:02;9.57;;;5.57;;
21458;SDS011;10891;49.350;19.386;2022-10-29T06:27:29;11.38;;;6.15;;
21458;SDS011;10891;49.350;19.386;2022-10-29T06:29:56;9.80;;;4.90;;
21458;SDS011;10891;49.350;19.386;2022-10-29T06:32:23;9.40;;;4.45;;
21458;SDS011;10891;49.350;19.386;2022-10-29T06:34:50;15.30;;;5.70;;
21458;SDS011;10891;49.350;19.386;2022-10-29T06:37:18;8.82;;;4.93;;
21458;SDS011;10891;49.350;19.386;2022-10-29T06:39:45;10.20;;;6.00;;
21458;SDS011;10891;49.350;19.386;2022-10-29T06:42:12;7.05;;;5.50;;
21458;SDS011;10891;49.350;19.386;2022-10-29T06:44:39;8.57;;;5.75;;
21458;SDS011;10891;49.350;19.386;2022-10-29T06:47:05;9.50;;;5.07;;
21458;SDS011;10891;49.350;19.386;2022-10-29T06:49:32;7.65;;;4.60;;
21458;SDS011;10891;49.350;19.386;2022-10-29T06:51:59;9.15;;;5.13;;
21458;SDS011;10891;49.350;19.386;2022-10-29T06:54:27;10.77;;;5.22;;
21458;SDS011;10891;49.350;19.386;2022-10-29T06:56:54;8.18;;;4.80;;
21458;SDS011;10891;49.350;19.386;2022-10-29T06:59:21;9.13;;;5.32;;
21458;SDS011;10891;49.350;19.386;2022-10-29T07:01:48;12.43;;;5.68;;
21458;SDS011;10891;49.350;19.386;2022-10-29T07:04:15;10.15;;;5.20;;
21458;SDS011;10891;49.350;19.386;2022-10-29T07:06:42;11.30;;;6.18;;
21458;SDS011;10891;49.350;19.386;2022-10-29T07:09:09;11.18;;;6.40;;
21458;SDS011;10891;49.350;19.386;2022-10-29T07:11:37;7.53;;;4.45;;
21458;SDS011;10891;49.350;19.386;2022-10-29T07:14:04;8.70;;;5.30;;
21458;SDS011;10891;49.350;19.386;2022-10-29T07:16:32;8.82;;;4.72;;
21458;SDS011;10891;49.350;19.386;2022-10-29T07:18:59;7.57;;;4.93;;
21458;SDS011;10891;49.350;19.386;2022-10-29T07:21:26;10.40;;;4.65;;
21458;SDS011;10891;49.350;19.386;2022-10-29T07:23:53;7.05;;;4.82;;
21458;SDS011;10891;49.350;19.386;2022-10-29T07:26:20;16.77;;;7.47;;
21458;SDS011;10891;49.350;19.386;2022-10-29T07:28:48;17.00;;;8.68;;
21458;SDS011;10891;49.350;19.386;2022-10-29T07:31:15;18.98;;;9.40;;
21458;SDS011;10891;49.350;19.386;2022-10-29T07:33:42;17.45;;;8.30;;
21458;SDS011;10891;49.350;19.386;2022-10-29T07:36:09;13.48;;;6.40;;
21458;SDS011;10891;49.350;19.386;2022-10-29T07:38:36;13.05;;;7.15;;
21458;SDS011;10891;49.350;19.386;2022-10-29T07:41:02;13.25;;;6.75;;
21458;SDS011;10891;49.350;19.386;2022-10-29T07:43:29;16.45;;;7.28;;
21458;SDS011;10891;49.350;19.386;2022-10-29T07:45:58;17.83;;;9.63;;
21458;SDS011;10891;49.350;19.386;2022-10-29T07:48:24;9.10;;;6.00;;
21458;SDS011;10891;49.350;19.386;2022-10-29T07:50:51;13.52;;;4.95;;
21458;SDS011;10891;49.350;19.386;2022-10-29T07:53:18;6.68;;;4.03;;
21458;SDS011;10891;49.350;19.386;2022-10-29T07:55:51;10.45;;;5.22;;
21458;SDS011;10891;49.350;19.386;2022-10-29T07:58:18;6.07;;;3.72;;
21458;SDS011;10891;49.350;19.386;2022-10-29T08:00:45;5.80;;;4.00;;
21458;SDS011;10891;49.350;19.386;2022-10-29T08:03:14;16.33;;;7.75;;
21458;SDS011;10891;49.350;19.386;2022-10-29T08:05:40;18.15;;;9.63;;
21458;SDS011;10891;49.350;19.386;2022-10-29T08:08:07;10.18;;;5.97;;
21458;SDS011;10891;49.350;19.386;2022-10-29T08:10:34;5.97;;;2.50;;
21458;SDS011;10891;49.350;19.386;2022-10-29T08:13:02;4.10;;;2.47;;
21458;SDS011;10891;49.350;19.386;2022-10-29T08:15:30;5.95;;;2.65;;
21458;SDS011;10891;49.350;19.386;2022-10-29T08:17:59;5.18;;;3.25;;
21458;SDS011;10891;49.350;19.386;2022-10-29T08:20:29;7.53;;;3.90;;
21458;SDS011;10891;49.350;19.386;2022-10-29T08:22:57;7.28;;;3.75;;
21458;SDS011;10891;49.350;19.386;2022-10-29T08:25:25;8.18;;;4.63;;
21458;SDS011;10891;49.350;19.386;2022-10-29T08:27:58;11.40;;;5.60;;
21458;SDS011;10891;49.350;19.386;2022-10-29T08:30:26;10.13;;;6.30;;
21458;SDS011;10891;49.350;19.386;2022-10-29T08:32:53;15.60;;;6.10;;
21458;SDS011;10891;49.350;19.386;2022-10-29T08:35:20;9.80;;;5.20;;
21458;SDS011;10891;49.350;19.386;2022-10-29T08:37:49;9.38;;;4.13;;
21458;SDS011;10891;49.350;19.386;2022-10-29T08:40:18;12.35;;;4.35;;
21458;SDS011;10891;49.350;19.386;2022-10-29T08:42:57;10.63;;;3.92;;
21458;SDS011;10891;49.350;19.386;2022-10-29T08:45:44;60.38;;;25.88;;
21458;SDS011;10891;49.350;19.386;2022-10-29T08:48:19;60.83;;;22.50;;
21458;SDS011;10891;49.350;19.386;2022-10-29T08:50:55;50.15;;;18.63;;
21458;SDS011;10891;49.350;19.386;2022-10-29T08:53:32;25.20;;;10.20;;
21458;SDS011;10891;49.350;19.386;2022-10-29T08:56:04;22.70;;;9.23;;
21458;SDS011;10891;49.350;19.386;2022-10-29T08:58:34;63.75;;;24.77;;
21458;SDS011;10891;49.350;19.386;2022-10-29T09:01:06;29.98;;;12.75;;
21458;SDS011;10891;49.350;19.386;2022-10-29T09:03:36;10.35;;;5.57;;
21458;SDS011;10891;49.350;19.386;2022-10-29T09:06:07;13.10;;;6.85;;
21458;SDS011;10891;49.350;19.386;2022-10-29T09:08:45;15.43;;;6.82;;
21458;SDS011;10891;49.350;19.386;2022-10-29T09:11:23;13.75;;;5.93;;
21458;SDS011;10891;49.350;19.386;2022-10-29T09:14:02;10.88;;;5.25;;
21458;SDS011;10891;49.350;19.386;2022-10-29T09:16:42;11.07;;;5.55;;
21458;SDS011;10891;49.350;19.386;2022-10-29T09:19:18;34.55;;;11.23;;
21458;SDS011;10891;49.350;19.386;2022-10-29T09:21:54;27.75;;;14.13;;
21458;SDS011;10891;49.350;19.386;2022-10-29T09:24:29;17.85;;;9.20;;
21458;SDS011;10891;49.350;19.386;2022-10-29T09:27:04;10.20;;;4.20;;
21458;SDS011;10891;49.350;19.386;2022-10-29T09:29:43;6.43;;;3.65;;
21458;SDS011;10891;49.350;19.386;2022-10-29T09:32:18;10.57;;;5.43;;
21458;SDS011;10891;49.350;19.386;2022-10-29T09:34:48;8.18;;;3.22;;
21458;SDS011;10891;49.350;19.386;2022-10-29T09:37:19;5.82;;;2.70;;
21458;SDS011;10891;49.350;19.386;2022-10-29T09:39:51;7.68;;;3.00;;
21458;SDS011;10891;49.350;19.386;2022-10-29T09:42:30;9.50;;;2.67;;
21458;SDS011;10891;49.350;19.386;2022-10-29T09:45:01;16.33;;;4.18;;
21458;SDS011;10891;49.350;19.386;2022-10-29T09:47:34;12.40;;;3.35;;
21458;SDS011;10891;49.350;19.386;2022-10-29T09:50:14;9.65;;;2.83;;
21458;SDS011;10891;49.350;19.386;2022-10-29T09:52:47;9.80;;;2.47;;
21458;SDS011;10891;49.350;19.386;2022-10-29T09:55:16;11.15;;;2.40;;
21458;SDS011;10891;49.350;19.386;2022-10-29T09:57:46;6.63;;;2.45;;
21458;SDS011;10891;49.350;19.386;2022-10-29T10:00:16;12.52;;;2.75;;
21458;SDS011;10891;49.350;19.386;2022-10-29T10:02:47;4.50;;;2.60;;
21458;SDS011;10891;49.350;19.386;2022-10-29T10:05:22;6.40;;;2.15;;
21458;SDS011;10891;49.350;19.386;2022-10-29T10:08:05;9.57;;;2.65;;
21458;SDS011;10891;49.350;19.386;2022-10-29T10:10:37;6.65;;;3.13;;
21458;SDS011;10891;49.350;19.386;2022-10-29T10:13:16;13.93;;;3.30;;
21458;SDS011;10891;49.350;19.386;2022-10-29T10:15:47;13.50;;;3.83;;
21458;SDS011;10891;49.350;19.386;2022-10-29T10:18:18;12.07;;;6.05;;
21458;SDS011;10891;49.350;19.386;2022-10-29T10:20:47;13.02;;;2.30;;
21458;SDS011;10891;49.350;19.386;2022-10-29T10:23:26;15.50;;;2.45;;
21458;SDS011;10891;49.350;19.386;2022-10-29T10:25:56;11.60;;;2.53;;
21458;SDS011;10891;49.350;19.386;2022-10-29T10:28:25;13.52;;;2.50;;
21458;SDS011;10891;49.350;19.386;2022-10-29T10:31:05;17.45;;;5.97;;
21458;SDS011;10891;49.350;19.386;2022-10-29T10:33:43;9.05;;;4.32;;
21458;SDS011;10891;49.350;19.386;2022-10-29T10:36:15;8.35;;;2.55;;
21458;SDS011;10891;49.350;19.386;2022-10-29T10:38:47;10.38;;;2.55;;
21458;SDS011;10891;49.350;19.386;2022-10-29T10:41:20;9.25;;;2.78;;
21458;SDS011;10891;49.350;19.386;2022-10-29T10:43:49;5.95;;;2.53;;
21458;SDS011;10891;49.350;19.386;2022-10-29T10:46:19;10.55;;;2.70;;
21458;SDS011;10891;49.350;19.386;2022-10-29T10:48:55;5.97;;;2.50;;
21458;SDS011;10891;49.350;19.386;2022-10-29T10:51:25;10.45;;;2.85;;
21458;SDS011;10891;49.350;19.386;2022-10-29T10:53:55;8.10;;;2.60;;
21458;SDS011;10891;49.350;19.386;2022-10-29T10:56:24;10.77;;;2.38;;
21458;SDS011;10891;49.350;19.386;2022-10-29T10:58:53;5.20;;;2.40;;
21458;SDS011;10891;49.350;19.386;2022-10-29T11:01:30;13.00;;;2.25;;
21458;SDS011;10891;49.350;19.386;2022-10-29T11:04:01;8.55;;;2.10;;
21458;SDS011;10891;49.350;19.386;2022-10-29T11:06:36;8.15;;;2.00;;
21458;SDS011;10891;49.350;19.386;2022-10-29T11:09:07;11.23;;;2.17;;
21458;SDS011;10891;49.350;19.386;2022-10-29T11:11:43;6.93;;;2.00;;
21458;SDS011;10891;49.350;19.386;2022-10-29T11:14:14;11.27;;;2.58;;
21458;SDS011;10891;49.350;19.386;2022-10-29T11:16:46;5.07;;;1.77;;
21458;SDS011;10891;49.350;19.386;2022-10-29T11:19:19;9.10;;;2.67;;
21458;SDS011;10891;49.350;19.386;2022-10-29T11:21:54;8.70;;;3.15;;
21458;SDS011;10891;49.350;19.386;2022-10-29T11:24:32;19.00;;;5.50;;
21458;SDS011;10891;49.350;19.386;2022-10-29T11:27:11;16.75;;;3.08;;
21458;SDS011;10891;49.350;19.386;2022-10-29T11:29:46;9.30;;;2.92;;
21458;SDS011;10891;49.350;19.386;2022-10-29T11:32:22;15.75;;;3.78;;
21458;SDS011;10891;49.350;19.386;2022-10-29T11:34:55;11.15;;;3.55;;
21458;SDS011;10891;49.350;19.386;2022-10-29T11:37:31;14.18;;;3.38;;
21458;SDS011;10891;49.350;19.386;2022-10-29T11:40:03;10.95;;;3.10;;
21458;SDS011;10891;49.350;19.386;2022-10-29T11:42:38;10.60;;;2.90;;
21458;SDS011;10891;49.350;19.386;2022-10-29T11:45:09;10.70;;;2.25;;
21458;SDS011;10891;49.350;19.386;2022-10-29T11:50:31;8.98;;;2.47;;
21458;SDS011;10891;49.350;19.386;2022-10-29T11:53:09;7.47;;;2.20;;
21458;SDS011;10891;49.350;19.386;2022-10-29T11:55:51;5.90;;;2.22;;
21458;SDS011;10891;49.350;19.386;2022-10-29T11:58:29;8.93;;;2.42;;
21458;SDS011;10891;49.350;19.386;2022-10-29T12:01:03;8.98;;;2.10;;
21458;SDS011;10891;49.350;19.386;2022-10-29T12:03:49;6.88;;;2.35;;
21458;SDS011;10891;49.350;19.386;2022-10-29T12:06:38;11.13;;;2.58;;
21458;SDS011;10891;49.350;19.386;2022-10-29T12:09:13;11.43;;;3.28;;
21458;SDS011;10891;49.350;19.386;2022-10-29T12:11:56;11.55;;;2.28;;
21458;SDS011;10891;49.350;19.386;2022-10-29T12:14:31;9.02;;;2.03;;
21458;SDS011;10891;49.350;19.386;2022-10-29T12:17:04;10.70;;;1.98;;
21458;SDS011;10891;49.350;19.386;2022-10-29T12:19:40;10.10;;;2.20;;
21458;SDS011;10891;49.350;19.386;2022-10-29T12:22:19;10.60;;;2.50;;
21458;SDS011;10891;49.350;19.386;2022-10-29T12:25:03;9.75;;;2.90;;
21458;SDS011;10891;49.350;19.386;2022-10-29T12:27:40;10.55;;;2.50;;
21458;SDS011;10891;49.350;19.386;2022-10-29T12:30:16;5.57;;;2.40;;
21458;SDS011;10891;49.350;19.386;2022-10-29T12:32:47;7.65;;;2.58;;
21458;SDS011;10891;49.350;19.386;2022-10-29T12:35:25;12.43;;;2.63;;
21458;SDS011;10891;49.350;19.386;2022-10-29T12:38:03;13.60;;;2.65;;
21458;SDS011;10891;49.350;19.386;2022-10-29T12:40:38;10.60;;;2.17;;
21458;SDS011;10891;49.350;19.386;2022-10-29T12:43:10;6.90;;;2.08;;
21458;SDS011;10891;49.350;19.386;2022-10-29T12:45:50;13.40;;;2.50;;
21458;SDS011;10891;49.350;19.386;2022-10-29T12:48:27;7.68;;;2.33;;
21458;SDS011;10891;49.350;19.386;2022-10-29T12:51:05;7.72;;;2.42;;
21458;SDS011;10891;49.350;19.386;2022-10-29T12:53:38;8.15;;;2.25;;
21458;SDS011;10891;49.350;19.386;2022-10-29T12:56:11;9.05;;;2.70;;
21458;SDS011;10891;49.350;19.386;2022-10-29T12:58:47;7.97;;;2.58;;
21458;SDS011;10891;49.350;19.386;2022-10-29T13:04:25;8.52;;;2.55;;
21458;SDS011;10891;49.350;19.386;2022-10-29T13:07:03;10.80;;;2.50;;
21458;SDS011;10891;49.350;19.386;2022-10-29T13:09:47;88.72;;;64.63;;
21458;SDS011;10891;49.350;19.386;2022-10-29T13:12:51;11.32;;;4.55;;
21458;SDS011;10891;49.350;19.386;2022-10-29T13:15:22;9.75;;;2.85;;
21458;SDS011;10891;49.350;19.386;2022-10-29T13:17:55;6.15;;;2.53;;
21458;SDS011;10891;49.350;19.386;2022-10-29T13:20:25;58.92;;;8.93;;
21458;SDS011;10891;49.350;19.386;2022-10-29T13:23:02;52.15;;;6.75;;
21458;SDS011;10891;49.350;19.386;2022-10-29T13:25:49;15.05;;;5.75;;
21458;SDS011;10891;49.350;19.386;2022-10-29T13:43:34;5.30;;;2.58;;
21458;SDS011;10891;49.350;19.386;2022-10-29T13:49:03;10.50;;;4.03;;
21458;SDS011;10891;49.350;19.386;2022-10-29T13:51:38;9.85;;;3.67;;
21458;SDS011;10891;49.350;19.386;2022-10-29T13:54:13;7.30;;;3.00;;
21458;SDS011;10891;49.350;19.386;2022-10-29T13:56:44;10.30;;;5.13;;
21458;SDS011;10891;49.350;19.386;2022-10-29T13:59:17;11.70;;;5.97;;
21458;SDS011;10891;49.350;19.386;2022-10-29T14:01:59;10.90;;;3.50;;
21458;SDS011;10891;49.350;19.386;2022-10-29T14:04:37;14.23;;;5.20;;
21458;SDS011;10891;49.350;19.386;2022-10-29T14:07:10;10.82;;;4.40;;
21458;SDS011;10891;49.350;19.386;2022-10-29T14:09:44;14.57;;;4.20;;
21458;SDS011;10891;49.350;19.386;2022-10-29T14:12:16;19.75;;;10.73;;
21458;SDS011;10891;49.350;19.386;2022-10-29T14:14:48;31.38;;;15.93;;
21458;SDS011;10891;49.350;19.386;2022-10-29T14:17:20;47.67;;;20.65;;
21458;SDS011;10891;49.350;19.386;2022-10-29T14:19:48;61.33;;;20.38;;
21458;SDS011;10891;49.350;19.386;2022-10-29T14:22:27;52.20;;;19.15;;
21458;SDS011;10891;49.350;19.386;2022-10-29T14:24:59;58.45;;;32.00;;
21458;SDS011;10891;49.350;19.386;2022-10-29T14:27:27;62.35;;;35.58;;
21458;SDS011;10891;49.350;19.386;2022-10-29T14:32:37;22.02;;;12.98;;
21458;SDS011;10891;49.350;19.386;2022-10-29T14:35:05;25.33;;;13.43;;
21458;SDS011;10891;49.350;19.386;2022-10-29T14:37:35;37.05;;;20.30;;
21458;SDS011;10891;49.350;19.386;2022-10-29T14:40:13;119.78;;;72.35;;
21458;SDS011;10891;49.350;19.386;2022-10-29T14:42:47;93.03;;;42.58;;
21458;SDS011;10891;49.350;19.386;2022-10-29T14:45:19;67.25;;;34.53;;
21458;SDS011;10891;49.350;19.386;2022-10-29T14:47:50;33.65;;;18.52;;
21458;SDS011;10891;49.350;19.386;2022-10-29T14:50:19;25.63;;;14.45;;
21458;SDS011;10891;49.350;19.386;2022-10-29T14:52:48;22.38;;;11.43;;
21458;SDS011;10891;49.350;19.386;2022-10-29T14:55:20;66.47;;;35.40;;
21458;SDS011;10891;49.350;19.386;2022-10-29T14:57:50;66.10;;;35.70;;
21458;SDS011;10891;49.350;19.386;2022-10-29T15:00:22;76.95;;;35.50;;
21458;SDS011;10891;49.350;19.386;2022-10-29T15:02:51;118.60;;;60.67;;
21458;SDS011;10891;49.350;19.386;2022-10-29T15:05:20;146.48;;;71.68;;
21458;SDS011;10891;49.350;19.386;2022-10-29T15:07:49;174.13;;;86.35;;
21458;SDS011;10891;49.350;19.386;2022-10-29T15:10:18;149.05;;;67.72;;
21458;SDS011;10891;49.350;19.386;2022-10-29T15:12:49;138.25;;;58.10;;
21458;SDS011;10891;49.350;19.386;2022-10-29T15:15:20;127.60;;;53.72;;